Time;durP1;ratioP1;P1;durP2;ratioP2;P2;SDS_P1;SDS_P2;PMS_P1;PMS_P2;Temp;Humidity;BMP_temperature;BMP_pressure;BME280_temperature;BME280_humidity;BME280_pressure;Samples;Min_cycle;Max_cycle;Signal;HPM_P1;HPM_P2
2023/01/10 11:22:05;;;;;;;1.10;0.30;;;9.70;94.60;;;;;;5127739;23;20232;-86
2023/01/10 11:24:48;;;;;;;1.47;0.53;;;9.60;94.40;;;;;;4924081;29;20274;-90
2023/01/10 11:27:20;;;;;;;0.40;0.40;;;9.60;94.50;;;;;;4891813;29;20188;-88
2023/01/10 11:29:51;;;;;;;0.60;0.60;;;9.70;94.20;;;;;;4906648;29;20691;-87
2023/01/10 11:32:30;;;;;;;0.27;0.27;;;9.80;94.40;;;;;;4908293;29;20188;-86
2023/01/10 11:34:59;;;;;;;0.20;0.20;;;9.70;94.00;;;;;;4940263;29;20175;-83
2023/01/10 11:37:31;;;;;;;0.40;0.40;;;9.60;94.20;;;;;;4929501;29;20180;-88
2023/01/10 11:40:15;;;;;;;0.20;0.20;;;9.60;94.50;;;;;;4902827;29;20274;-87
2023/01/10 11:42:41;;;;;;;0.40;0.40;;;9.60;94.30;;;;;;4902088;29;20178;-85
2023/01/10 11:45:16;;;;;;;1.17;0.47;;;9.60;94.50;;;;;;4918808;29;20179;-87
2023/01/10 11:47:55;;;;;;;0.40;0.40;;;9.70;94.60;;;;;;4902020;29;20193;-89
2023/01/10 11:50:27;;;;;;;0.37;0.37;;;9.70;93.80;;;;;;4901893;29;20620;-89
2023/01/10 11:52:54;;;;;;;0.27;0.27;;;9.70;94.00;;;;;;4901702;29;20226;-89
2023/01/10 11:55:30;;;;;;;0.50;0.50;;;9.70;94.10;;;;;;4918738;29;20184;-84
2023/01/10 11:58:08;;;;;;;0.40;0.40;;;9.70;94.20;;;;;;4918068;29;20178;-84
2023/01/10 12:00:46;;;;;;;0.47;0.30;;;9.70;94.10;;;;;;4918269;29;20252;-83
2023/01/10 12:03:29;;;;;;;0.30;0.30;;;9.70;94.20;;;;;;4900628;29;20183;-85
2023/01/10 12:06:03;;;;;;;0.57;0.57;;;9.80;94.20;;;;;;4901453;29;20178;-84
2023/01/10 12:08:37;;;;;;;0.30;0.30;;;9.90;94.30;;;;;;4902131;29;20631;-84
2023/01/10 12:11:06;;;;;;;0.50;0.50;;;10.00;93.40;;;;;;4923854;29;20269;-83
2023/01/10 12:13:51;;;;;;;0.37;0.37;;;9.90;94.10;;;;;;4903063;29;20214;-85
2023/01/10 12:16:28;;;;;;;0.37;0.37;;;9.90;94.30;;;;;;4918594;29;20645;-84
2023/01/10 12:19:01;;;;;;;0.50;0.50;;;9.80;93.60;;;;;;4907634;29;20176;-86
2023/01/10 12:21:41;;;;;;;0.30;0.30;;;9.80;93.70;;;;;;4920634;29;20240;-89
2023/01/10 12:24:31;;;;;;;2.00;0.40;;;9.60;93.90;;;;;;4902273;29;20306;-90
2023/01/10 12:27:00;;;;;;;0.50;0.50;;;9.60;93.70;;;;;;4919102;29;20164;-89
2023/01/10 12:29:39;;;;;;;0.30;0.30;;;9.60;93.80;;;;;;4902143;29;20184;-88
2023/01/10 12:32:16;;;;;;;0.93;0.37;;;9.50;93.50;;;;;;4909495;29;20232;-86
2023/01/10 12:34:48;;;;;;;0.53;0.50;;;9.40;93.50;;;;;;4905473;29;20214;-90
2023/01/10 12:37:43;;;;;;;0.40;0.40;;;9.30;93.80;;;;;;4906492;29;20191;-86
2023/01/10 12:40:21;;;;;;;0.50;0.50;;;9.30;93.20;;;;;;4904159;29;20189;-88
2023/01/10 12:46:20;;;;;;;1.73;0.30;;;9.20;93.70;;;;;;4920638;29;20709;-90
2023/01/10 12:49:06;;;;;;;0.30;0.30;;;9.20;93.80;;;;;;4902625;29;20175;-88
2023/01/10 12:51:34;;;;;;;0.67;0.47;;;9.10;93.80;;;;;;4903571;29;20171;-87
2023/01/10 12:54:13;;;;;;;0.37;0.37;;;9.10;93.70;;;;;;4904423;29;20214;-85
2023/01/10 12:56:40;;;;;;;0.30;0.30;;;9.10;93.70;;;;;;4930261;29;20203;-84
2023/01/10 12:59:38;;;;;;;0.30;0.30;;;9.00;93.70;;;;;;4927015;29;20187;-84
2023/01/10 13:02:14;;;;;;;0.40;0.40;;;9.00;93.90;;;;;;4914207;29;20205;-83
2023/01/10 13:04:43;;;;;;;0.50;0.50;;;9.10;93.90;;;;;;4935894;29;20500;-87
2023/01/10 13:07:11;;;;;;;0.43;0.43;;;9.00;93.80;;;;;;4912817;29;20183;-90
2023/01/10 13:09:41;;;;;;;1.33;0.60;;;9.00;94.00;;;;;;4924290;29;20193;-91
2023/01/10 13:12:33;;;;;;;0.47;0.47;;;9.00;94.10;;;;;;4907793;29;20186;-83
2023/01/10 13:15:05;;;;;;;0.40;0.40;;;8.90;94.30;;;;;;4909799;29;20192;-89
2023/01/10 13:17:31;;;;;;;1.03;0.47;;;8.90;94.40;;;;;;4909334;29;20178;-83
2023/01/10 13:20:15;;;;;;;0.40;0.40;;;8.90;94.40;;;;;;4906346;29;20182;-85
2023/01/10 13:22:55;;;;;;;0.50;0.50;;;8.90;94.60;;;;;;4924349;29;20589;-83
2023/01/10 13:25:29;;;;;;;0.43;0.43;;;8.80;94.60;;;;;;4924356;29;20476;-85
2023/01/10 13:28:19;;;;;;;0.83;0.40;;;8.90;94.50;;;;;;4924507;29;20163;-88
2023/01/10 13:30:52;;;;;;;0.50;0.50;;;8.80;94.60;;;;;;4926136;29;20186;-84
2023/01/10 13:33:25;;;;;;;0.40;0.40;;;8.80;94.60;;;;;;4932329;29;20213;-85
2023/01/10 13:35:55;;;;;;;0.40;0.40;;;8.80;94.60;;;;;;4908848;29;20168;-83
2023/01/10 13:38:38;;;;;;;0.70;0.50;;;8.80;94.60;;;;;;4908928;29;20604;-85
2023/01/10 13:43:17;;;;;;;0.40;0.40;;;8.90;94.70;;;;;;4904573;29;20183;-85
2023/01/10 13:44:12;;;;;;;0.43;0.43;;;8.80;94.10;;;;;;4920783;29;20176;-84
2023/01/10 13:46:39;;;;;;;0.40;0.40;;;8.80;94.40;;;;;;4921069;29;20207;-84
2023/01/10 13:49:11;;;;;;;0.27;0.27;;;8.80;94.20;;;;;;4904029;29;20261;-83
2023/01/10 13:51:38;;;;;;;2.60;0.60;;;8.80;94.20;;;;;;4904638;29;20174;-86
2023/01/10 13:54:24;;;;;;;3.40;0.53;;;8.90;94.30;;;;;;4903413;29;20579;-82
2023/01/10 13:56:50;;;;;;;0.60;0.60;;;8.90;94.30;;;;;;4922739;29;20164;-90
2023/01/10 14:02:28;;;;;;;0.37;0.37;;;8.90;94.40;;;;;;4925338;29;20180;-86
2023/01/10 14:04:58;;;;;;;0.37;0.37;;;8.90;94.30;;;;;;4909067;29;20179;-88
2023/01/10 14:07:39;;;;;;;0.43;0.43;;;8.90;94.30;;;;;;4907551;29;20587;-87
2023/01/10 14:10:18;;;;;;;0.37;0.37;;;8.90;94.40;;;;;;4923816;29;20251;-86
2023/01/10 14:13:07;;;;;;;0.40;0.40;;;8.90;94.30;;;;;;4921973;29;20170;-89
2023/01/10 14:15:39;;;;;;;0.43;0.43;;;8.90;94.40;;;;;;4922003;29;20179;-85
2023/01/10 14:18:26;;;;;;;0.60;0.60;;;8.90;94.40;;;;;;4922112;29;20171;-87
2023/01/10 14:21:07;;;;;;;1.60;0.40;;;8.90;94.40;;;;;;4922692;29;20214;-85
2023/01/10 14:23:39;;;;;;;0.40;0.40;;;8.90;94.60;;;;;;4923260;29;20167;-86
2023/01/10 14:26:13;;;;;;;0.40;0.40;;;8.80;94.20;;;;;;4905224;29;20551;-87
2023/01/10 14:28:40;;;;;;;1.27;0.53;;;8.80;94.50;;;;;;4922662;29;20163;-85
2023/01/10 14:31:21;;;;;;;0.40;0.40;;;8.70;94.40;;;;;;4928086;29;20169;-85
2023/01/10 14:33:47;;;;;;;0.40;0.40;;;8.70;94.50;;;;;;4929992;29;20238;-87
2023/01/10 14:36:44;;;;;;;0.40;0.40;;;8.70;94.50;;;;;;4922547;29;20207;-89
2023/01/10 14:39:14;;;;;;;0.40;0.40;;;8.70;94.40;;;;;;4906139;29;20192;-84
2023/01/10 14:41:44;;;;;;;0.40;0.40;;;8.70;94.40;;;;;;4909000;29;20239;-88
2023/01/10 14:44:18;;;;;;;0.50;0.50;;;8.60;94.30;;;;;;4890114;29;20190;-89
2023/01/10 14:46:49;;;;;;;0.30;0.30;;;8.60;94.30;;;;;;4922788;29;20255;-86
2023/01/10 14:49:21;;;;;;;0.63;0.63;;;8.50;94.50;;;;;;4905515;29;20630;-92
2023/01/10 14:51:50;;;;;;;0.50;0.50;;;8.50;94.60;;;;;;4923908;29;20179;-90
2023/01/10 14:54:19;;;;;;;0.40;0.40;;;8.40;94.80;;;;;;4905836;29;20214;-88
2023/01/10 14:56:50;;;;;;;0.50;0.50;;;8.40;94.90;;;;;;4926517;29;20260;-90
2023/01/10 14:59:25;;;;;;;0.90;0.57;;;8.40;95.00;;;;;;4941855;29;20185;-88
2023/01/10 15:02:20;;;;;;;0.60;0.60;;;8.30;95.10;;;;;;4941339;29;20180;-87
2023/01/10 15:05:08;;;;;;;2.10;0.40;;;8.40;95.20;;;;;;4911231;29;20202;-85
2023/01/10 15:07:35;;;;;;;0.50;0.50;;;8.30;95.20;;;;;;4915963;29;20189;-90
2023/01/10 15:10:09;;;;;;;0.43;0.43;;;8.20;95.10;;;;;;4931846;29;20194;-82
2023/01/10 15:12:37;;;;;;;0.43;0.43;;;8.20;95.40;;;;;;4916456;29;20181;-85
2023/01/10 15:15:11;;;;;;;0.80;0.80;;;8.20;95.50;;;;;;4909468;29;20206;-91
2023/01/10 15:17:38;;;;;;;1.10;0.50;;;8.10;95.40;;;;;;4908109;29;20255;-88
2023/01/10 15:20:04;;;;;;;0.30;0.30;;;8.20;95.30;;;;;;4928429;29;20176;-81
2023/01/10 15:22:35;;;;;;;0.50;0.50;;;8.00;95.20;;;;;;4919121;29;20228;-89
2023/01/10 15:25:25;;;;;;;0.57;0.57;;;8.00;95.40;;;;;;4925698;29;20261;-86
2023/01/10 15:27:52;;;;;;;0.37;0.37;;;7.90;95.30;;;;;;4914981;29;20180;-89
2023/01/10 15:30:26;;;;;;;0.70;0.70;;;8.00;95.30;;;;;;4926870;29;20184;-88
2023/01/10 15:33:00;;;;;;;0.60;0.60;;;8.00;95.20;;;;;;4926254;29;20261;-84
2023/01/10 15:35:31;;;;;;;0.80;0.80;;;8.00;95.10;;;;;;4937930;29;20168;-84
2023/01/10 15:38:05;;;;;;;0.47;0.47;;;7.90;95.20;;;;;;4934221;29;20184;-85
2023/01/10 15:40:37;;;;;;;0.43;0.43;;;7.90;95.10;;;;;;4912431;29;20172;-90
2023/01/10 15:43:17;;;;;;;0.60;0.60;;;7.80;95.10;;;;;;4922868;29;20688;-90
2023/01/10 15:45:45;;;;;;;0.70;0.70;;;7.80;95.10;;;;;;4923545;29;20178;-93
2023/01/10 15:48:38;;;;;;;0.70;0.70;;;7.70;95.20;;;;;;4925446;29;20180;-92
2023/01/10 15:51:14;;;;;;;0.73;0.73;;;7.60;95.30;;;;;;4907811;29;20189;-91
2023/01/10 15:53:49;;;;;;;0.70;0.70;;;7.70;95.30;;;;;;4922964;29;20216;-90
2023/01/10 15:56:18;;;;;;;0.40;0.40;;;7.70;95.40;;;;;;4905315;29;20182;-86
2023/01/10 15:58:44;;;;;;;0.50;0.50;;;7.70;95.40;;;;;;4920784;29;20185;-89
2023/01/10 16:01:14;;;;;;;0.97;0.80;;;7.70;95.40;;;;;;4921072;29;20171;-89
2023/01/10 16:03:51;;;;;;;0.80;0.80;;;7.70;95.40;;;;;;4920033;29;20178;-91
2023/01/10 16:06:25;;;;;;;0.83;0.83;;;7.70;95.30;;;;;;4931815;29;20167;-83
2023/01/10 16:08:56;;;;;;;1.00;1.00;;;7.70;95.50;;;;;;4924257;29;20202;-89
2023/01/10 16:14:11;;;;;;;0.90;0.90;;;7.60;95.90;;;;;;4918630;29;20724;-87
2023/01/10 16:16:37;;;;;;;3.13;1.20;;;7.60;95.80;;;;;;4901440;29;20207;-90
2023/01/10 16:19:04;;;;;;;1.20;1.13;;;7.70;95.90;;;;;;4918899;29;20175;-90
2023/01/10 16:21:38;;;;;;;1.37;1.27;;;7.80;95.80;;;;;;4918932;29;20251;-91
2023/01/10 16:24:05;;;;;;;1.20;1.20;;;7.70;95.60;;;;;;4918568;29;20171;-85
2023/01/10 16:26:32;;;;;;;1.00;1.00;;;7.70;95.50;;;;;;4918823;29;20185;-92
2023/01/10 16:28:57;;;;;;;1.03;1.03;;;7.80;95.30;;;;;;4918509;29;20253;-89
2023/01/10 16:31:23;;;;;;;0.87;0.87;;;7.70;94.90;;;;;;4901748;29;20210;-91
2023/01/10 16:33:49;;;;;;;0.77;0.73;;;7.70;94.90;;;;;;4918418;29;20345;-91
2023/01/10 16:36:19;;;;;;;0.60;0.60;;;7.70;94.60;;;;;;4918952;29;20167;-89
2023/01/10 16:38:46;;;;;;;0.60;0.60;;;7.70;94.40;;;;;;4918529;29;20738;-87
2023/01/10 16:43:59;;;;;;;0.50;0.50;;;7.60;94.70;;;;;;4918185;29;20209;-85
2023/01/10 16:46:27;;;;;;;0.60;0.60;;;7.50;94.30;;;;;;4917631;29;20324;-83
2023/01/10 16:48:53;;;;;;;0.60;0.60;;;7.50;94.20;;;;;;4901599;29;20189;-83
2023/01/10 16:51:26;;;;;;;0.80;0.80;;;7.50;94.40;;;;;;4917832;29;20629;-83
2023/01/10 16:53:52;;;;;;;1.07;0.57;;;7.40;94.30;;;;;;4904241;29;20213;-90
2023/01/10 16:56:25;;;;;;;0.60;0.60;;;7.40;94.40;;;;;;4912071;29;20177;-85
2023/01/10 16:58:52;;;;;;;0.70;0.70;;;7.40;94.30;;;;;;4923374;29;20192;-86
2023/01/10 17:01:23;;;;;;;0.77;0.60;;;7.30;94.40;;;;;;4921452;29;20183;-85
2023/01/10 17:03:50;;;;;;;0.50;0.50;;;7.30;94.60;;;;;;4922441;29;20165;-84
2023/01/10 17:06:16;;;;;;;0.50;0.50;;;7.40;94.00;;;;;;4922823;29;20197;-86
2023/01/10 17:08:43;;;;;;;1.03;0.80;;;7.30;94.30;;;;;;4926609;29;20178;-85
2023/01/10 17:11:21;;;;;;;0.70;0.70;;;7.30;94.50;;;;;;4939686;29;20262;-84
2023/01/10 17:13:48;;;;;;;0.90;0.90;;;7.20;94.60;;;;;;4940327;29;20665;-83
2023/01/10 17:16:15;;;;;;;1.10;1.00;;;7.30;94.60;;;;;;4935302;29;20189;-84
2023/01/10 17:18:41;;;;;;;0.93;0.93;;;7.20;94.60;;;;;;4910842;29;20188;-85
2023/01/10 17:21:15;;;;;;;1.47;0.60;;;7.20;94.90;;;;;;4920968;29;20225;-86
2023/01/10 17:23:42;;;;;;;1.47;0.83;;;7.10;94.50;;;;;;4919283;29;20176;-85
2023/01/10 17:26:09;;;;;;;0.80;0.80;;;7.10;94.60;;;;;;4919629;29;20270;-85
2023/01/10 17:28:35;;;;;;;1.10;1.10;;;7.10;94.60;;;;;;4922699;29;20176;-85
2023/01/10 17:31:01;;;;;;;1.00;1.00;;;7.00;94.50;;;;;;4932887;29;20211;-83
2023/01/10 17:33:27;;;;;;;1.20;1.20;;;7.10;94.50;;;;;;4932453;29;20274;-85
2023/01/10 17:35:55;;;;;;;1.70;1.60;;;7.10;94.40;;;;;;4907105;29;20217;-84
2023/01/10 17:38:23;;;;;;;1.27;1.27;;;7.00;94.60;;;;;;4920284;29;20190;-87
2023/01/10 17:40:49;;;;;;;3.57;1.67;;;6.90;95.00;;;;;;4928275;29;20178;-85
2023/01/10 17:43:17;;;;;;;0.97;0.97;;;6.90;94.40;;;;;;4904753;29;20193;-87
2023/01/10 17:45:46;;;;;;;1.10;1.10;;;7.00;94.30;;;;;;4917551;29;20184;-84
2023/01/10 17:48:14;;;;;;;1.00;1.00;;;7.00;94.10;;;;;;4918753;29;20173;-87
2023/01/10 17:50:47;;;;;;;0.80;0.80;;;7.00;94.30;;;;;;4906536;29;20274;-87
2023/01/10 17:53:13;;;;;;;0.87;0.87;;;6.90;93.90;;;;;;4921526;29;20205;-84
2023/01/10 17:55:44;;;;;;;2.47;0.87;;;7.00;93.70;;;;;;4903605;29;20189;-88
2023/01/10 17:58:10;;;;;;;0.70;0.70;;;7.00;93.70;;;;;;4903481;29;20183;-85
2023/01/10 18:00:35;;;;;;;0.80;0.80;;;6.90;93.40;;;;;;4920290;29;20177;-87
2023/01/10 18:03:01;;;;;;;2.27;0.80;;;6.90;93.90;;;;;;4920179;29;20703;-87
2023/01/10 18:05:27;;;;;;;1.10;1.10;;;6.90;93.60;;;;;;4920506;29;20180;-88
2023/01/10 18:07:55;;;;;;;0.67;0.67;;;7.00;93.30;;;;;;4920178;29;20175;-87
2023/01/10 18:10:21;;;;;;;1.03;1.03;;;7.00;93.10;;;;;;4920647;29;20176;-88
2023/01/10 18:12:47;;;;;;;1.00;1.00;;;7.00;93.30;;;;;;4920294;29;20183;-86
2023/01/10 18:15:12;;;;;;;1.50;1.40;;;6.90;93.60;;;;;;4919875;29;20178;-85
2023/01/10 18:17:38;;;;;;;0.80;0.80;;;6.90;93.50;;;;;;4919863;29;20181;-83
2023/01/10 18:20:05;;;;;;;2.90;0.87;;;6.90;93.00;;;;;;4903319;29;20188;-83
2023/01/10 18:25:16;;;;;;;0.80;0.80;;;6.80;92.60;;;;;;4921723;29;20172;-85
2023/01/10 18:27:42;;;;;;;0.93;0.93;;;6.80;92.60;;;;;;4921433;29;20178;-83
2023/01/10 18:30:09;;;;;;;0.67;0.67;;;6.80;92.50;;;;;;4920948;29;20174;-85
2023/01/10 18:32:35;;;;;;;1.37;1.07;;;6.80;92.60;;;;;;4903809;29;20374;-83
2023/01/10 18:35:01;;;;;;;1.63;1.00;;;6.80;92.50;;;;;;4920911;29;20806;-83
2023/01/10 18:37:27;;;;;;;0.70;0.70;;;6.70;92.40;;;;;;4921802;29;20204;-83
2023/01/10 18:39:52;;;;;;;0.90;0.90;;;6.80;92.00;;;;;;4923898;29;20213;-83
2023/01/10 18:42:18;;;;;;;3.10;1.00;;;6.70;91.80;;;;;;4923476;29;20231;-88
2023/01/10 18:44:44;;;;;;;0.97;0.90;;;6.70;91.70;;;;;;4922862;29;20208;-84
2023/01/10 18:47:10;;;;;;;1.13;1.10;;;6.80;91.80;;;;;;4903243;29;20588;-83
2023/01/10 18:49:37;;;;;;;1.33;1.00;;;6.80;91.90;;;;;;4919782;29;20266;-85
2023/01/10 18:52:03;;;;;;;0.97;0.90;;;6.70;91.30;;;;;;4920758;29;20178;-87
2023/01/10 18:54:30;;;;;;;1.97;1.27;;;6.70;91.30;;;;;;4920999;29;20217;-88
2023/01/10 18:56:56;;;;;;;1.00;1.00;;;6.70;91.20;;;;;;4926165;29;20193;-83
2023/01/10 18:59:22;;;;;;;0.80;0.80;;;6.70;91.00;;;;;;4939250;29;20192;-84
2023/01/10 19:01:48;;;;;;;2.30;0.97;;;6.70;90.80;;;;;;4923493;29;20192;-87
2023/01/10 19:04:15;;;;;;;1.57;0.83;;;6.70;90.50;;;;;;4932927;29;20193;-87
2023/01/10 19:06:43;;;;;;;0.97;0.70;;;6.70;90.50;;;;;;4922588;29;20648;-82
2023/01/10 19:09:09;;;;;;;3.40;1.10;;;6.70;90.60;;;;;;4919434;29;20212;-87
2023/01/10 19:11:36;;;;;;;1.27;0.83;;;6.60;90.60;;;;;;4920800;29;20213;-84
2023/01/10 19:14:03;;;;;;;1.57;1.30;;;6.50;90.70;;;;;;4921976;29;20229;-85
2023/01/10 19:16:33;;;;;;;1.33;1.23;;;6.50;90.90;;;;;;4928796;29;20560;-84
2023/01/10 19:19:04;;;;;;;1.10;1.10;;;6.50;90.90;;;;;;4924758;29;20182;-87
2023/01/10 19:21:31;;;;;;;0.90;0.90;;;6.40;90.90;;;;;;4905896;29;20236;-82
2023/01/10 19:24:04;;;;;;;1.40;1.30;;;6.40;90.80;;;;;;4909623;29;20209;-84
2023/01/10 19:26:30;;;;;;;1.20;1.10;;;6.40;91.40;;;;;;4901930;29;20188;-85
2023/01/10 19:28:56;;;;;;;2.10;1.00;;;6.40;90.70;;;;;;4902918;29;20209;-84
2023/01/10 19:31:27;;;;;;;1.60;1.17;;;6.40;90.60;;;;;;4917752;29;20189;-82
2023/01/10 19:33:56;;;;;;;1.77;1.00;;;6.40;90.80;;;;;;4907728;29;20693;-85
2023/01/10 19:36:22;;;;;;;3.27;1.53;;;6.40;91.10;;;;;;4901315;29;20190;-85
2023/01/10 19:38:54;;;;;;;15.60;7.63;;;6.30;94.20;;;;;;4900113;29;20186;-85
2023/01/10 19:41:20;;;;;;;20.30;7.63;;;6.30;91.30;;;;;;4897874;29;20169;-84
2023/01/10 19:43:46;;;;;;;4.80;3.10;;;6.30;92.10;;;;;;4899373;29;20182;-84
2023/01/10 19:46:12;;;;;;;7.53;2.93;;;6.20;91.30;;;;;;4899321;29;20541;-85
2023/01/10 19:48:38;;;;;;;2.13;1.73;;;6.20;92.10;;;;;;4899249;29;20255;-85
2023/01/10 19:51:10;;;;;;;2.03;1.40;;;6.20;91.40;;;;;;4897677;29;20236;-83
2023/01/10 19:53:43;;;;;;;170.60;47.50;;;6.10;91.50;;;;;;4899412;29;20227;-83
2023/01/10 19:56:12;;;;;;;17.40;8.37;;;6.00;91.80;;;;;;4898375;29;20217;-83
2023/01/10 19:58:38;;;;;;;6.20;3.33;;;5.90;92.40;;;;;;4898271;29;20204;-81
2023/01/10 20:01:15;;;;;;;5.77;3.07;;;5.90;93.00;;;;;;4897936;29;20190;-83
2023/01/10 20:03:45;;;;;;;6.07;2.30;;;5.90;93.40;;;;;;4899232;29;20163;-83
2023/01/10 20:06:13;;;;;;;2.27;2.00;;;5.80;93.10;;;;;;4898819;29;20185;-83
2023/01/10 20:08:40;;;;;;;3.80;2.03;;;5.80;93.30;;;;;;4898583;29;20197;-82
2023/01/10 20:11:06;;;;;;;3.03;2.23;;;5.80;93.60;;;;;;4897389;29;20190;-81
2023/01/10 20:13:36;;;;;;;2.53;1.87;;;5.70;93.30;;;;;;4897610;29;20262;-83
2023/01/10 20:16:06;;;;;;;2.60;2.40;;;5.60;93.50;;;;;;4898940;29;20180;-83
2023/01/10 20:18:32;;;;;;;2.57;2.20;;;5.60;93.40;;;;;;4897895;29;20179;-83
2023/01/10 20:21:02;;;;;;;2.77;2.30;;;5.60;93.60;;;;;;4898556;29;20226;-82
2023/01/10 20:23:30;;;;;;;5.57;2.93;;;5.40;93.90;;;;;;4898825;29;20174;-82
2023/01/10 20:25:56;;;;;;;3.50;2.90;;;5.40;94.20;;;;;;4899209;29;20534;-84
2023/01/10 20:28:23;;;;;;;6.63;2.77;;;5.40;94.10;;;;;;4897277;29;20657;-82
2023/01/10 20:30:49;;;;;;;3.80;2.70;;;5.40;94.40;;;;;;4898968;29;20219;-83
2023/01/10 20:33:15;;;;;;;3.07;2.30;;;5.40;94.60;;;;;;4898966;29;20255;-83
2023/01/10 20:35:41;;;;;;;4.30;2.60;;;5.40;94.70;;;;;;4898912;29;20178;-83
2023/01/10 20:38:08;;;;;;;4.00;2.40;;;5.30;94.60;;;;;;4898846;29;20180;-84
2023/01/10 20:40:38;;;;;;;4.43;2.67;;;5.20;94.90;;;;;;4897286;29;20185;-84
2023/01/10 20:43:04;;;;;;;7.50;3.07;;;5.20;95.10;;;;;;4897386;29;20181;-85
2023/01/10 20:45:33;;;;;;;5.90;3.30;;;5.10;94.80;;;;;;4897350;29;20189;-84
2023/01/10 20:47:59;;;;;;;4.43;2.63;;;5.00;94.50;;;;;;4897383;29;20187;-85
2023/01/10 20:50:25;;;;;;;6.53;3.73;;;4.90;94.40;;;;;;4898368;29;20197;-84
2023/01/10 20:52:51;;;;;;;7.67;4.17;;;4.90;95.00;;;;;;4898811;29;20181;-84
2023/01/10 20:55:18;;;;;;;5.63;3.80;;;4.90;95.50;;;;;;4898080;29;20554;-84
2023/01/10 20:57:46;;;;;;;7.50;3.97;;;4.90;95.60;;;;;;4899801;29;20428;-83
2023/01/10 21:00:12;;;;;;;3.43;2.83;;;4.90;95.70;;;;;;4898626;29;20189;-84
2023/01/10 21:02:38;;;;;;;6.57;2.90;;;4.80;95.70;;;;;;4897216;29;20186;-83
2023/01/10 21:05:05;;;;;;;6.50;3.30;;;4.90;96.20;;;;;;4899776;29;20777;-86
2023/01/10 21:07:32;;;;;;;5.73;3.33;;;4.90;95.80;;;;;;4896992;29;20208;-82
2023/01/10 21:09:58;;;;;;;3.93;2.70;;;4.90;96.00;;;;;;4897636;29;20240;-85
2023/01/10 21:12:26;;;;;;;4.90;2.90;;;4.90;96.00;;;;;;4897283;29;20644;-84
2023/01/10 21:14:52;;;;;;;3.07;2.70;;;4.90;95.90;;;;;;4898761;29;20252;-83
2023/01/10 21:17:18;;;;;;;5.00;3.37;;;4.90;96.10;;;;;;4898020;29;20187;-85
2023/01/10 21:19:44;;;;;;;4.80;2.47;;;4.90;96.10;;;;;;4900612;29;20180;-85
2023/01/10 21:22:10;;;;;;;3.27;2.63;;;4.80;96.20;;;;;;4920140;29;20231;-83
2023/01/10 21:24:36;;;;;;;3.13;2.77;;;4.80;96.40;;;;;;4922035;29;20177;-88
2023/01/10 21:27:02;;;;;;;3.63;2.73;;;4.60;96.50;;;;;;4910154;29;20216;-86
2023/01/10 21:29:29;;;;;;;5.90;3.03;;;4.70;96.50;;;;;;4912735;29;20275;-84
2023/01/10 21:31:55;;;;;;;4.60;2.67;;;4.60;96.50;;;;;;4915455;29;20639;-86
2023/01/10 21:34:21;;;;;;;4.53;2.53;;;4.60;96.50;;;;;;4912802;29;20245;-84
2023/01/10 21:36:47;;;;;;;3.03;2.73;;;4.50;96.40;;;;;;4908207;29;20212;-86
2023/01/10 21:39:13;;;;;;;135.60;57.60;;;4.40;96.60;;;;;;4922277;29;20241;-86
2023/01/10 21:44:24;;;;;;;162.63;65.60;;;4.40;97.10;;;;;;4920808;29;20639;-84
2023/01/10 21:46:50;;;;;;;94.17;38.60;;;4.50;99.90;;;;;;4920556;29;20207;-83
2023/01/10 21:49:16;;;;;;;38.70;18.23;;;4.60;99.90;;;;;;4903306;29;20223;-85
2023/01/10 21:51:43;;;;;;;14.43;7.00;;;4.60;99.90;;;;;;4920994;29;20188;-82
2023/01/10 21:54:10;;;;;;;5.73;4.50;;;4.60;98.80;;;;;;4913026;29;20246;-83
2023/01/10 21:56:36;;;;;;;6.43;4.67;;;4.60;97.30;;;;;;4909428;29;20189;-86
2023/01/10 21:59:02;;;;;;;7.90;4.90;;;4.60;97.30;;;;;;4906484;29;20201;-86
2023/01/10 22:01:27;;;;;;;7.13;4.30;;;4.50;96.90;;;;;;4907179;29;20329;-86
2023/01/10 22:03:53;;;;;;;11.70;4.97;;;4.40;97.00;;;;;;4904521;29;20188;-82
2023/01/10 22:06:19;;;;;;;10.20;5.33;;;4.40;98.30;;;;;;4922273;29;20183;-85
2023/01/10 22:08:45;;;;;;;11.30;5.80;;;4.30;97.60;;;;;;4920298;29;20300;-83
2023/01/10 22:11:11;;;;;;;7.60;5.03;;;4.20;97.00;;;;;;4923506;29;20537;-83
2023/01/10 22:13:37;;;;;;;7.37;4.67;;;4.10;97.40;;;;;;4921159;29;20256;-82
2023/01/10 22:16:03;;;;;;;7.97;4.60;;;4.10;97.10;;;;;;4920848;29;20206;-84
2023/01/10 22:18:30;;;;;;;8.90;4.90;;;4.00;97.20;;;;;;4920197;29;20695;-82
2023/01/10 22:20:57;;;;;;;6.23;4.33;;;4.00;97.00;;;;;;4919335;29;20379;-83
2023/01/10 22:23:24;;;;;;;8.73;4.93;;;4.00;97.10;;;;;;4904011;29;20184;-83
2023/01/10 22:26:01;;;;;;;10.53;4.77;;;3.90;97.50;;;;;;4922627;29;20212;-84
2023/01/10 22:28:27;;;;;;;7.80;4.17;;;3.90;97.40;;;;;;4919825;29;20187;-85
2023/01/10 22:30:54;;;;;;;4.70;4.20;;;3.80;97.10;;;;;;4904340;29;20180;-84
2023/01/10 22:33:20;;;;;;;9.97;4.30;;;3.60;97.00;;;;;;4919406;29;20639;-83
2023/01/10 22:35:46;;;;;;;7.60;3.77;;;3.60;97.40;;;;;;4919562;29;20176;-84
2023/01/10 22:38:12;;;;;;;3.90;3.50;;;3.50;97.10;;;;;;4901638;29;20231;-81
2023/01/10 22:40:37;;;;;;;6.27;3.70;;;3.50;97.00;;;;;;4919605;29;20171;-83
2023/01/10 22:43:03;;;;;;;5.63;3.57;;;3.40;96.90;;;;;;4920062;29;20271;-85
2023/01/10 22:45:30;;;;;;;7.93;3.87;;;3.30;97.00;;;;;;4919547;29;20636;-86
2023/01/10 22:47:56;;;;;;;6.00;3.50;;;3.40;97.30;;;;;;4919909;29;20179;-83
2023/01/10 22:50:23;;;;;;;8.87;4.20;;;3.40;96.90;;;;;;4920330;29;20186;-86
2023/01/10 22:52:50;;;;;;;10.30;4.30;;;3.20;96.90;;;;;;4921307;29;20265;-85
2023/01/10 22:55:16;;;;;;;7.23;4.30;;;3.20;97.00;;;;;;4902434;29;20213;-83
2023/01/10 22:57:46;;;;;;;6.80;4.13;;;3.30;97.30;;;;;;4919370;29;20173;-85
2023/01/10 23:00:12;;;;;;;10.33;4.13;;;3.30;97.50;;;;;;4902615;29;20180;-82
2023/01/10 23:02:38;;;;;;;6.93;4.47;;;3.40;97.30;;;;;;4927746;29;20546;-83
2023/01/10 23:05:04;;;;;;;7.40;4.27;;;3.30;97.20;;;;;;4921478;29;20177;-83
2023/01/10 23:07:30;;;;;;;5.37;3.83;;;3.20;97.80;;;;;;4933969;29;20248;-83
2023/01/10 23:09:56;;;;;;;8.63;4.00;;;3.30;97.90;;;;;;4920247;29;20194;-83
2023/01/10 23:12:22;;;;;;;10.57;4.37;;;3.20;97.80;;;;;;4930420;29;20183;-85
2023/01/10 23:14:48;;;;;;;5.70;3.80;;;3.20;97.90;;;;;;4923106;29;20222;-85
2023/01/10 23:17:14;;;;;;;4.97;3.30;;;3.10;97.50;;;;;;4922793;29;20212;-85
2023/01/10 23:19:39;;;;;;;9.37;4.50;;;3.10;97.60;;;;;;4921914;29;20184;-87
2023/01/10 23:22:05;;;;;;;5.60;3.60;;;3.00;97.50;;;;;;4921979;29;20236;-87
2023/01/10 23:24:31;;;;;;;5.60;3.90;;;3.10;97.70;;;;;;4905311;29;20184;-87
2023/01/10 23:26:57;;;;;;;5.17;3.20;;;3.00;97.70;;;;;;4922288;29;20188;-87
2023/01/10 23:29:23;;;;;;;3.60;3.10;;;2.90;97.40;;;;;;4926682;29;20187;-85
2023/01/10 23:31:49;;;;;;;6.20;3.47;;;2.80;97.30;;;;;;4928242;29;20185;-84
2023/01/10 23:34:16;;;;;;;7.43;3.53;;;2.80;97.60;;;;;;4939694;29;20212;-83
2023/01/10 23:36:44;;;;;;;4.90;3.27;;;2.70;97.60;;;;;;4910601;29;20184;-85
2023/01/10 23:39:10;;;;;;;5.37;3.43;;;2.70;97.70;;;;;;4932907;29;20190;-83
2023/01/10 23:41:35;;;;;;;4.13;3.13;;;2.70;97.40;;;;;;4911742;29;20180;-86
2023/01/10 23:44:01;;;;;;;2.57;2.37;;;2.60;97.50;;;;;;4920574;29;20188;-87
2023/01/10 23:46:27;;;;;;;3.30;3.00;;;2.50;97.60;;;;;;4902164;29;20183;-87
2023/01/10 23:48:52;;;;;;;3.10;2.80;;;2.40;97.70;;;;;;4901831;29;20548;-88
2023/01/10 23:51:18;;;;;;;3.07;2.87;;;2.40;97.70;;;;;;4918642;29;20183;-86
2023/01/10 23:53:44;;;;;;;4.40;2.83;;;2.20;97.90;;;;;;4901889;29;20694;-86
2023/01/10 23:56:13;;;;;;;3.87;2.53;;;2.20;98.10;;;;;;4919390;29;20635;-86
2023/01/10 23:58:39;;;;;;;2.93;2.73;;;2.10;98.10;;;;;;4903694;29;20199;-84
